地図

経路データ

SID SEASON NUMBER BASIN SUBBASIN NAME ISO_TIME NATURE LAT LON WMO_WIND WMO_PRES WMO_AGENCY TRACK_TYPE DIST2LAND LANDFALL IFLAG USA_AGENCY USA_ATCF_ID USA_LAT USA_LON USA_RECORD USA_STATUS USA_WIND USA_PRES USA_SSHS USA_R34_NE USA_R34_SE USA_R34_SW USA_R34_NW USA_R50_NE USA_R50_SE USA_R50_SW USA_R50_NW USA_R64_NE USA_R64_SE USA_R64_SW USA_R64_NW USA_POCI USA_ROCI USA_RMW USA_EYE TOKYO_LAT TOKYO_LON TOKYO_GRADE TOKYO_WIND TOKYO_PRES TOKYO_R50_DIR TOKYO_R50_LONG TOKYO_R50_SHORT TOKYO_R30_DIR TOKYO_R30_LONG TOKYO_R30_SHORT TOKYO_LAND CMA_LAT CMA_LON CMA_CAT CMA_WIND CMA_PRES HKO_LAT HKO_LON HKO_CAT HKO_WIND HKO_PRES NEWDELHI_LAT NEWDELHI_LON NEWDELHI_GRADE NEWDELHI_WIND NEWDELHI_PRES NEWDELHI_CI NEWDELHI_DP NEWDELHI_POCI REUNION_LAT REUNION_LON REUNION_TYPE REUNION_WIND REUNION_PRES REUNION_TNUM REUNION_CI REUNION_RMW REUNION_R34_NE REUNION_R34_SE REUNION_R34_SW REUNION_R34_NW REUNION_R50_NE REUNION_R50_SE REUNION_R50_SW REUNION_R50_NW REUNION_R64_NE REUNION_R64_SE REUNION_R64_SW REUNION_R64_NW BOM_LAT BOM_LON BOM_TYPE BOM_WIND BOM_PRES BOM_TNUM BOM_CI BOM_RMW BOM_R34_NE BOM_R34_SE BOM_R34_SW BOM_R34_NW BOM_R50_NE BOM_R50_SE BOM_R50_SW BOM_R50_NW BOM_R64_NE BOM_R64_SE BOM_R64_SW BOM_R64_NW BOM_ROCI BOM_POCI BOM_EYE BOM_POS_METHOD BOM_PRES_METHOD NADI_LAT NADI_LON NADI_CAT NADI_WIND NADI_PRES WELLINGTON_LAT WELLINGTON_LON WELLINGTON_WIND WELLINGTON_PRES DS824_LAT DS824_LON DS824_STAGE DS824_WIND DS824_PRES TD9636_LAT TD9636_LON TD9636_STAGE TD9636_WIND TD9636_PRES TD9635_LAT TD9635_LON TD9635_WIND TD9635_PRES TD9635_ROCI NEUMANN_LAT NEUMANN_LON NEUMANN_CLASS NEUMANN_WIND NEUMANN_PRES MLC_LAT MLC_LON MLC_CLASS MLC_WIND MLC_PRES USA_GUST BOM_GUST BOM_GUST_PER REUNION_GUST REUNION_GUST_PER USA_SEAHGT USA_SEARAD_NE USA_SEARAD_SE USA_SEARAD_SW USA_SEARAD_NW STORM_SPEED STORM_DIR
1878283N18342 1878 28 NA NA NOT_NAMED 1878-10-10 06:00:00 TS 18.1000 -17.8000 main 182 182 _____________O -1 18.1000 -17.8000 TD 30 13 274
1878283N18342 1878 28 NA NA NOT_NAMED 1878-10-10 09:00:00 TS 18.1503 -18.4850 main 249 249 _____________P -1 18.1503 -18.4850 TD 32 13 274
1878283N18342 1878 28 NA NA NOT_NAMED 1878-10-10 12:00:00 TS 18.2000 -19.2000 main 314 314 _____________O -1 18.2000 -19.2000 TS 35 14 274
1878283N18342 1878 28 NA NA NOT_NAMED 1878-10-10 15:00:00 TS 18.2500 -19.9575 main 392 388 _____________P -1 18.2500 -19.9575 TS 37 14 274
1878283N18342 1878 28 NA NA NOT_NAMED 1878-10-10 18:00:00 TS 18.3000 -20.7000 main 458 458 _____________O -1 18.3000 -20.7000 TS 40 13 274
1878283N18342 1878 28 NA NA NOT_NAMED 1878-10-10 21:00:00 TS 18.3495 -21.3501 main 530 524 _____________P -1 18.3495 -21.3501 TS 45 12 275
1878283N18342 1878 28 NA NA NOT_NAMED 1878-10-11 00:00:00 TS 18.4000 -22.0000 main 579 579 _____________O -1 18.4000 -22.0000 TS 50 13 274
1878283N18342 1878 28 NA NA NOT_NAMED 1878-10-11 03:00:00 TS 18.4499 -22.7350 main 645 645 _____________P -1 18.4499 -22.7350 TS 55 14 274
1878283N18342 1878 28 NA NA NOT_NAMED 1878-10-11 06:00:00 TS 18.5000 -23.5000 main 717 717 _____________O -1 18.5000 -23.5000 TS 60 14 274
1878283N18342 1878 28 NA NA NOT_NAMED 1878-10-11 09:00:00 TS 18.5498 -24.2575 main 796 792 _____________P -1 18.5498 -24.2575 TS 65 14 274
1878283N18342 1878 28 NA NA NOT_NAMED 1878-10-11 12:00:00 TS 18.6000 -25.0000 main 862 862 _____________O -1 18.6000 -25.0000 HU 70 14 274
1878283N18342 1878 28 NA NA NOT_NAMED 1878-10-11 15:00:00 TS 18.6496 -25.7001 main 933 929 _____________P -1 18.6496 -25.7001 HU 75 13 274
1878283N18342 1878 28 NA NA NOT_NAMED 1878-10-11 18:00:00 TS 18.7000 -26.4000 main 1000 1000 _____________O -1 18.7000 -26.4000 HU 80 979 14 274
1878283N18342 1878 28 NA NA NOT_NAMED 1878-10-11 21:00:00 TS 18.7499 -27.1500 main 1082 1079 _____________P -1 18.7499 -27.1500 HU 82 14 274
1878283N18342 1878 28 NA NA NOT_NAMED 1878-10-12 00:00:00 TS 18.8000 -27.9000 main 1151 1151 _____________O -1 18.8000 -27.9000 HU 85 14 274
1878283N18342 1878 28 NA NA NOT_NAMED 1878-10-12 03:00:00 TS 18.8571 -28.6000 main 1221 1221 _____________P -1 18.8571 -28.6000 HU 87 13 274
1878283N18342 1878 28 NA NA NOT_NAMED 1878-10-12 06:00:00 TS 18.9000 -29.3000 main 1293 1293 _____________O -1 18.9000 -29.3000 HU 90 14 272
1878283N18342 1878 28 NA NA NOT_NAMED 1878-10-12 09:00:00 TS 18.8999 -30.0502 main 1375 1375 _____________P -1 18.8999 -30.0502 HU 90 14 270
1878283N18342 1878 28 NA NA NOT_NAMED 1878-10-12 12:00:00 TS 18.9000 -30.8000 main 1447 1447 _____________O -1 18.9000 -30.8000 HU 90 14 272
1878283N18342 1878 28 NA NA NOT_NAMED 1878-10-12 15:00:00 TS 18.9421 -31.5000 main 1520 1520 _____________P -1 18.9421 -31.5000 HU 90 13 274
1878283N18342 1878 28 NA NA NOT_NAMED 1878-10-12 18:00:00 TS 19.0000 -32.2000 main 1590 1590 _____________O -1 19.0000 -32.2000 HU 90 14 276
1878283N18342 1878 28 NA NA NOT_NAMED 1878-10-12 21:00:00 TS 19.0798 -32.9421 main 1661 1661 _____________P -1 19.0798 -32.9421 HU 90 23 252
1878283N18342 1878 28 NA NA NOT_NAMED 1878-10-13 00:00:00 TS 18.2667 -34.5333 40 hurdat_atl main 1843 1843 O____________O hurdat_atl AL101878 16.6000 -36.2000 TS 40 0 19.1000 -33.7000 HU 90 28 242
1878283N18342 1878 28 NA NA NOT_NAMED 1878-10-13 03:00:00 TS 17.7637 -35.4989 main 1952 1950 P____________P AL101878 16.5476 -36.5401 TS 40 0 18.9798 -34.4578 HU 92 18 242
1878283N18342 1878 28 NA NA NOT_NAMED 1878-10-13 06:00:00 TS 17.4200 -36.2200 40 hurdat_atl main 2020 2020 O____________O hurdat_atl AL101878 16.5000 -36.9000 TS 40 0 18.8000 -35.2000 HU 95 14 246
1878283N18342 1878 28 NA NA NOT_NAMED 1878-10-13 09:00:00 TS 17.1882 -36.8282 main 2082 2082 P____________P AL101878 16.4575 -37.2924 TS 40 0 18.6496 -35.8998 HU 95 11 253
1878283N18342 1878 28 NA NA NOT_NAMED 1878-10-13 12:00:00 TS 17.1000 -37.3333 40 hurdat_atl main 2094 2047 O____________O hurdat_atl AL101878 16.4000 -37.7000 TS 40 0 18.5000 -36.6000 HU 95 10 258
1878283N18342 1878 28 NA NA NOT_NAMED 1878-10-13 15:00:00 TS 16.9782 -37.8400 main 2047 2000 P____________P AL101878 16.2923 -38.0851 TS 40 0 18.3499 -37.3499 HU 95 10 257
1878283N18342 1878 28 NA NA NOT_NAMED 1878-10-13 18:00:00 TS 16.8667 -38.3667 40 hurdat_atl main 1993 1947 O____________O hurdat_atl AL101878 16.2000 -38.5000 TS 40 0 18.2000 -38.1000 HU 95 11 261
1878283N18342 1878 28 NA NA NOT_NAMED 1878-10-13 21:00:00 TS 16.8066 -38.9307 main 1947 1902 P____________P AL101878 16.1851 -38.9999 TS 45 0 18.0495 -38.7923 HU 95 11 265
1878283N18342 1878 28 NA NA NOT_NAMED 1878-10-14 00:00:00 TS 16.7667 -39.5000 50 hurdat_atl main 1902 1857 O____________O hurdat_atl AL101878 16.2000 -39.5000 TS 50 0 17.9000 -39.5000 HU 95 11 265
1878283N18342 1878 28 NA NA NOT_NAMED 1878-10-14 03:00:00 TS 16.7165 -40.0383 main 1857 1821 P____________P AL101878 16.1998 -39.9075 TS 50 0 17.7500 -40.2999 HU 97 10 264
1878283N18342 1878 28 NA NA NOT_NAMED 1878-10-14 06:00:00 TS 16.6667 -40.5667 50 hurdat_atl main 1814 1771 O____________O hurdat_atl AL101878 16.2000 -40.3000 TS 50 0 17.6000 -41.1000 MH 100 948 10 264
1878283N18342 1878 28 NA NA NOT_NAMED 1878-10-14 09:00:00 TS 16.6066 -41.1151 main 1771 1737 P____________P AL101878 16.1999 -40.7350 TS 50 0 17.4201 -41.8752 MH 102 10 264
1878283N18342 1878 28 NA NA NOT_NAMED 1878-10-14 12:00:00 TS 16.5667 -41.6333 50 hurdat_atl main 1737 1704 O____________O hurdat_atl AL101878 16.2000 -41.2000 TS 50 0 17.3000 -42.5000 MH 105 9 267
1878283N18342 1878 28 NA NA NOT_NAMED 1878-10-14 15:00:00 TS 16.5531 -42.0768 main 1704 1679 P____________P AL101878 16.1699 -41.6853 TS 50 0 17.3196 -42.8598 MH 107 8 272
1878283N18342 1878 28 NA NA NOT_NAMED 1878-10-14 18:00:00 TS 16.6000 -42.5000 50 hurdat_atl main 1679 1664 O____________O hurdat_atl AL101878 16.2000 -42.2000 TS 50 0 17.4000 -43.1000 MH 110 9 283
1878283N18342 1878 28 NA NA NOT_NAMED 1878-10-14 21:00:00 TS 16.7474 -42.9564 main 1658 1649 P____________P AL101878 16.3924 -42.7347 TS 55 0 17.4575 -43.4000 MH 112 9 289
1878283N18342 1878 28 NA NA NOT_NAMED 1878-10-15 00:00:00 TS 16.9000 -43.4333 60 hurdat_atl main 1649 1617 O____________O hurdat_atl AL101878 16.6000 -43.3000 TS 60 0 17.5000 -43.7000 MH 115 10 282
1878283N18342 1878 28 NA NA NOT_NAMED 1878-10-15 03:00:00 TS 16.9408 -43.9411 main 1617 1595 P____________P AL101878 16.6575 -43.9078 TS 60 0 17.5075 -44.0075 MH 117 10 274
1878283N18342 1878 28 NA NA NOT_NAMED 1878-10-15 06:00:00 TS 16.9667 -44.4333 60 hurdat_atl main 1595 1571 O____________O hurdat_atl AL101878 16.7000 -44.5000 TS 60 0 17.5000 -44.3000 MH 120 9 275
1878283N18342 1878 28 NA NA NOT_NAMED 1878-10-15 09:00:00 TS 17.0239 -44.8626 main 1565 1557 P____________P AL101878 16.8197 -45.0002 TS 65 1 17.4325 -44.5876 MH 122 8 284
1878283N18342 1878 28 NA NA NOT_NAMED 1878-10-15 12:00:00 TS 17.1667 -45.2667 70 hurdat_atl main 1561 1555 O____________O hurdat_atl AL101878 17.0000 -45.5000 HU 70 1 17.5000 -44.8000 MH 125 9 298
1878283N18342 1878 28 NA NA NOT_NAMED 1878-10-15 15:00:00 TS 17.4508 -45.6883 main 1568 1563 P____________P AL101878 17.2350 -46.0925 HU 70 1 17.8825 -44.8800 MH 127 10 309
1878283N18342 1878 28 NA NA NOT_NAMED 1878-10-15 18:00:00 TS 17.8000 -46.1000 70 hurdat_atl main 1578 1578 O____________O hurdat_atl AL101878 17.5000 -46.7000 HU 70 1 18.4000 -44.9000 MH 130 10 311
1878283N18342 1878 28 NA NA NOT_NAMED 1878-10-15 21:00:00 TS 18.0965 -46.4787 main 1588 1588 P____________P AL101878 17.7198 -47.2580 HU 75 1 18.8499 -44.9203 MH 130 10 311
1878283N18342 1878 28 NA NA NOT_NAMED 1878-10-16 00:00:00 TS 18.4333 -46.8667 80 hurdat_atl main 1600 1600 O____________O hurdat_atl AL101878 18.0000 -47.8000 HU 80 1 19.3000 -45.0000 MH 130 11 314
1878283N18342 1878 28 NA NA NOT_NAMED 1878-10-16 03:00:00 TS 18.8659 -47.3215 main 1635 1631 P____________P AL101878 18.4275 -48.3723 HU 80 1 19.7426 -45.2199 MH 130 12 317
1878283N18342 1878 28 NA NA NOT_NAMED 1878-10-16 06:00:00 TS 19.3333 -47.7667 80 hurdat_atl main 1652 1652 O____________O hurdat_atl AL101878 18.9000 -48.9000 HU 80 1 20.2000 -45.5000 MH 130 12 320
1878283N18342 1878 28 NA NA NOT_NAMED 1878-10-16 09:00:00 TS 19.7764 -48.1245 main 1690 1686 P____________P AL101878 19.3072 -49.3229 HU 85 2 20.7148 -45.7277 MH 130 11 323
1878283N18342 1878 28 NA NA NOT_NAMED 1878-10-16 12:00:00 TS 20.2000 -48.4667 90 hurdat_atl main 1709 1704 O____________O hurdat_atl AL101878 19.7000 -49.7000 HU 90 2 21.2000 -46.0000 MH 130 11 320
1878283N18342 1878 28 NA NA NOT_NAMED 1878-10-16 15:00:00 TS 20.5833 -48.8570 main 1703 1700 P____________P AL101878 20.0774 -50.0930 HU 90 2 21.5951 -46.3849 MH 130 11 316
1878283N18342 1878 28 NA NA NOT_NAMED 1878-10-16 18:00:00 TS 20.9667 -49.2667 90 hurdat_atl main 1700 1691 O____________O hurdat_atl AL101878 20.5000 -50.5000 HU 90 2 21.9000 -46.8000 MH 130 11 316
1878283N18342 1878 28 NA NA NOT_NAMED 1878-10-16 21:00:00 TS 21.3749 -49.6836 main 1694 1661 P____________P AL101878 21.0275 -50.9500 HU 95 2 22.0698 -47.1508 MH 130 12 318
1878283N18342 1878 28 NA NA NOT_NAMED 1878-10-17 00:00:00 TS 21.8333 -50.1000 100 hurdat_atl main 1661 1632 O____________O hurdat_atl AL101878 21.6000 -51.4000 HU 100 3 22.3000 -47.5000 MH 130 927 13 323
1878283N18342 1878 28 NA NA NOT_NAMED 1878-10-17 03:00:00 TS 22.3732 -50.5051 main 1634 1608 P____________P AL101878 22.1423 -51.8080 HU 100 3 22.8350 -47.8994 MH 127 13 326
1878283N18342 1878 28 NA NA NOT_NAMED 1878-10-17 06:00:00 TS 22.9333 -50.9000 100 hurdat_atl main 1608 1585 O____________O hurdat_atl AL101878 22.7000 -52.2000 HU 100 3 23.4000 -48.3000 MH 125 13 325
1878283N18342 1878 28 NA NA NOT_NAMED 1878-10-17 09:00:00 TS 23.4107 -51.2791 main 1585 1571 P____________P AL101878 23.2848 -52.5930 HU 100 3 23.6623 -48.6513 MH 122 12 325
1878283N18342 1878 28 NA NA NOT_NAMED 1878-10-17 12:00:00 TS 23.9333 -51.6667 100 hurdat_atl main 1565 1553 O____________O hurdat_atl AL101878 23.9000 -53.0000 HU 100 3 24.0000 -49.0000 MH 120 14 328
1878283N18342 1878 28 NA NA NOT_NAMED 1878-10-17 15:00:00 TS 24.5883 -52.0928 main 1557 1548 P____________P AL101878 24.5199 -53.4430 HU 100 3 24.7250 -49.3923 MH 117 16 331
1878283N18342 1878 28 NA NA NOT_NAMED 1878-10-17 18:00:00 TS 25.3333 -52.5333 100 hurdat_atl main 1554 1551 O____________O hurdat_atl AL101878 25.2000 -53.9000 HU 100 3 25.6000 -49.8000 MH 115 17 333
1878283N18342 1878 28 NA NA NOT_NAMED 1878-10-17 21:00:00 TS 26.1230 -52.9475 main 1563 1557 P____________P AL101878 25.9849 -54.3503 HU 100 3 26.3992 -50.1419 MH 112 18 334
1878283N18342 1878 28 NA NA NOT_NAMED 1878-10-18 00:00:00 TS 26.9333 -53.4000 100 hurdat_atl main 1569 1567 O____________O hurdat_atl AL101878 26.8000 -54.8000 HU 100 3 27.2000 -50.6000 MH 110 18 330
1878283N18342 1878 28 NA NA NOT_NAMED 1878-10-18 03:00:00 TS 27.7055 -53.9862 main 1575 1574 P____________P AL101878 27.5576 -55.2801 HU 100 3 28.0013 -51.3985 MH 107 19 322
1878283N18342 1878 28 NA NA NOT_NAMED 1878-10-18 06:00:00 TS 28.4364 -54.7455 100 hurdat_atl main 1574 1574 O____________O hurdat_atl AL101878 28.3000 -55.7000 HU 100 3 28.8000 -52.2000 MH 105 19 321
1878283N18342 1878 28 NA NA NOT_NAMED 1878-10-18 09:00:00 TS 29.1776 -55.3229 main 1596 1589 P____________P AL101878 29.0722 -55.9735 HU 100 3 29.5991 -52.7007 MH 102 17 326
1878283N18342 1878 28 NA NA NOT_NAMED 1878-10-18 12:00:00 TS 29.8667 -55.8444 100 hurdat_atl main 1622 1615 O____________O hurdat_atl AL101878 29.8000 -56.2000 HU 100 3 30.4000 -53.0000 MH 100 951 16 321
1878283N18342 1878 28 NA NA NOT_NAMED 1878-10-18 15:00:00 TS 30.4450 -56.5075 main 1625 1579 P_____________ AL101878 30.4450 -56.5075 HU 100 3 MH 14 324
1878283N18342 1878 28 NA NA NOT_NAMED 1878-10-18 18:00:00 TS 31.0000 -56.8000 100 951 hurdat_atl main 1579 1531 O_____________ hurdat_atl AL101878 31.0000 -56.8000 HU 100 951 3 11 336
1878283N18342 1878 28 NA NA NOT_NAMED 1878-10-18 21:00:00 TS 31.4724 -57.0304 main 1521 1472 P_____________ AL101878 31.4724 -57.0304 HU 100 3 10 339
1878283N18342 1878 28 NA NA NOT_NAMED 1878-10-19 00:00:00 TS 31.9000 -57.2000 100 hurdat_atl main 1472 1428 O_____________ hurdat_atl AL101878 31.9000 -57.2000 HU 100 3 9 345
1878283N18342 1878 28 NA NA NOT_NAMED 1878-10-19 03:00:00 TS 32.3649 -57.3153 main 1418 1374 P_____________ AL101878 32.3649 -57.3153 HU 100 3 9 350
1878283N18342 1878 28 NA NA NOT_NAMED 1878-10-19 06:00:00 TS 32.8000 -57.4000 100 hurdat_atl main 1374 1340 O_____________ hurdat_atl AL101878 32.8000 -57.4000 HU 100 3 8 349
1878283N18342 1878 28 NA NA NOT_NAMED 1878-10-19 09:00:00 TS 33.1425 -57.5002 main 1340 1297 P_____________ AL101878 33.1425 -57.5002 HU 95 2 7 347
1878283N18342 1878 28 NA NA NOT_NAMED 1878-10-19 12:00:00 TS 33.5000 -57.6000 90 hurdat_atl main 1297 1253 O_____________ hurdat_atl AL101878 33.5000 -57.6000 HU 90 2 8 349
1878283N18342 1878 28 NA NA NOT_NAMED 1878-10-19 15:00:00 TS 33.9650 -57.6997 main 1243 1191 P_____________ AL101878 33.9650 -57.6997 HU 90 2 10 350
1878283N18342 1878 28 NA NA NOT_NAMED 1878-10-19 18:00:00 TS 34.5000 -57.8000 90 hurdat_atl main 1191 O_____________ hurdat_atl AL101878 34.5000 -57.8000 HU 90 2 11 351

IBTrACS Databaseについて

本データベースは、米国NOAAが公開する1842年以降の世界の熱帯低気圧のベストトラックデータアーカイブInternational Best Track Archive for Climate Stewardship (IBTrACS)を、ウェブで閲覧しやすい形式に変換したものです。

最終更新日:2021-11-26